Time;durP1;ratioP1;P1;durP2;ratioP2;P2;SDS_P1;SDS_P2;PMS_P1;PMS_P2;Temp;Humidity;BMP_temperature;BMP_pressure;BME280_temperature;BME280_humidity;BME280_pressure;Samples;Min_cycle;Max_cycle;Signal;HPM_P1;HPM_P2
2023/08/03 00:01:23;;;;;;;1.42;1.25;;;20.60;68.20;;;;;;5053153;28;20222;-66
2023/08/03 00:03:48;;;;;;;1.55;1.02;;;20.60;68.20;;;;;;5052438;28;20234;-66
2023/08/03 00:06:14;;;;;;;1.55;1.10;;;20.60;69.10;;;;;;5053287;28;20248;-65
2023/08/03 00:08:39;;;;;;;1.83;1.20;;;20.50;68.20;;;;;;5053170;28;20636;-65
2023/08/03 00:11:05;;;;;;;1.45;1.27;;;20.60;68.30;;;;;;5052350;28;20609;-64
2023/08/03 00:13:30;;;;;;;1.30;1.10;;;20.60;68.30;;;;;;5053132;28;20172;-64
2023/08/03 00:15:56;;;;;;;2.63;1.20;;;20.60;68.30;;;;;;5052672;28;20638;-64
2023/08/03 00:18:21;;;;;;;1.35;1.10;;;20.60;68.30;;;;;;5052189;28;20262;-64
2023/08/03 00:20:48;;;;;;;2.17;1.00;;;20.60;69.20;;;;;;5053100;28;20186;-65
2023/08/03 00:23:13;;;;;;;1.70;1.30;;;20.60;68.30;;;;;;5052468;28;20704;-64
2023/08/03 00:25:39;;;;;;;2.25;1.20;;;20.60;68.30;;;;;;5051950;28;20226;-64
2023/08/03 00:28:04;;;;;;;1.35;1.05;;;20.60;68.30;;;;;;5052458;28;20258;-64
2023/08/03 00:30:30;;;;;;;1.75;1.10;;;20.60;68.30;;;;;;5052668;28;20308;-65
2023/08/03 00:32:55;;;;;;;1.35;1.10;;;20.60;68.30;;;;;;5051988;28;20261;-65
2023/08/03 00:35:21;;;;;;;1.23;1.05;;;20.60;68.40;;;;;;5052534;28;20179;-65
2023/08/03 00:37:46;;;;;;;1.13;0.98;;;20.50;68.30;;;;;;5052589;28;20183;-65
2023/08/03 00:40:12;;;;;;;0.93;0.88;;;20.60;68.30;;;;;;5051692;28;20179;-65
2023/08/03 00:42:38;;;;;;;1.45;1.15;;;20.60;68.30;;;;;;5052475;28;20223;-65
2023/08/03 00:45:05;;;;;;;1.40;1.00;;;20.60;68.40;;;;;;5051406;28;20207;-64
2023/08/03 00:47:30;;;;;;;2.13;1.08;;;20.60;68.40;;;;;;5052701;28;20178;-64
2023/08/03 00:49:56;;;;;;;2.25;0.90;;;20.60;68.50;;;;;;5052330;28;20168;-64
2023/08/03 00:52:23;;;;;;;1.17;1.08;;;20.50;68.40;;;;;;5050677;28;20329;-63
2023/08/03 00:54:48;;;;;;;1.40;1.20;;;20.50;68.40;;;;;;5052369;28;20182;-64
2023/08/03 00:57:14;;;;;;;2.17;1.15;;;20.50;68.40;;;;;;5052155;28;20167;-64
2023/08/03 00:59:46;;;;;;;2.97;1.30;;;20.60;68.50;;;;;;5051492;28;20266;-65
2023/08/03 01:02:11;;;;;;;1.45;1.05;;;20.50;68.40;;;;;;5051746;28;20187;-67
2023/08/03 01:04:37;;;;;;;1.98;0.90;;;20.60;68.50;;;;;;5050937;28;20219;-66
2023/08/03 01:07:02;;;;;;;1.55;0.88;;;20.50;68.40;;;;;;5051375;28;20171;-64
2023/08/03 01:09:28;;;;;;;1.33;1.02;;;20.50;68.40;;;;;;5052423;28;20613;-65
2023/08/03 01:11:54;;;;;;;1.52;1.00;;;20.50;68.40;;;;;;5052538;28;20255;-64
2023/08/03 01:14:19;;;;;;;1.35;1.23;;;20.50;68.40;;;;;;5051289;28;20175;-64
2023/08/03 01:16:45;;;;;;;0.95;0.90;;;20.50;68.40;;;;;;5052325;28;20581;-64
2023/08/03 01:19:10;;;;;;;1.33;1.10;;;20.50;68.30;;;;;;5052123;28;20273;-64
2023/08/03 01:21:36;;;;;;;1.02;0.90;;;20.60;68.30;;;;;;5050295;28;20175;-64
2023/08/03 01:24:02;;;;;;;1.17;0.90;;;20.50;68.30;;;;;;5051940;28;20191;-64
2023/08/03 01:26:27;;;;;;;1.05;0.95;;;20.50;68.40;;;;;;5052104;28;20518;-64
2023/08/03 01:28:53;;;;;;;1.08;0.98;;;20.50;68.30;;;;;;5051326;28;20185;-65
2023/08/03 01:31:18;;;;;;;1.20;1.00;;;20.50;68.40;;;;;;5052305;28;20183;-65
2023/08/03 01:33:44;;;;;;;1.77;1.20;;;20.50;68.30;;;;;;5052174;28;20178;-66
2023/08/03 01:36:09;;;;;;;1.27;1.00;;;20.50;68.30;;;;;;5049997;28;20179;-66
2023/08/03 01:38:35;;;;;;;3.40;1.30;;;20.50;68.40;;;;;;5052015;28;20266;-65
2023/08/03 01:41:00;;;;;;;1.33;1.05;;;20.50;68.40;;;;;;5051589;28;20352;-65
2023/08/03 01:43:26;;;;;;;1.23;0.80;;;20.50;68.40;;;;;;5051113;28;20222;-65
2023/08/03 01:45:52;;;;;;;0.80;0.80;;;20.50;68.40;;;;;;5051984;28;20222;-65
2023/08/03 01:48:17;;;;;;;1.10;1.00;;;20.50;68.40;;;;;;5051493;28;20728;-64
2023/08/03 01:50:43;;;;;;;1.42;1.20;;;20.50;68.40;;;;;;5051748;28;20673;-64
2023/08/03 01:53:08;;;;;;;1.60;0.93;;;20.50;68.40;;;;;;5051695;28;20596;-64
2023/08/03 01:55:34;;;;;;;1.00;0.88;;;20.50;69.30;;;;;;5051145;28;20463;-64
2023/08/03 01:57:59;;;;;;;0.77;0.77;;;20.50;68.30;;;;;;5051520;28;20226;-64
2023/08/03 02:00:25;;;;;;;1.02;0.93;;;20.50;68.40;;;;;;5051899;28;20175;-65
2023/08/03 02:02:51;;;;;;;1.38;0.90;;;20.50;68.40;;;;;;5051017;28;20262;-66
2023/08/03 02:05:17;;;;;;;1.83;1.10;;;20.50;68.40;;;;;;5051375;28;20298;-65
2023/08/03 02:07:47;;;;;;;1.23;0.90;;;20.50;68.30;;;;;;5050637;28;20678;-65
2023/08/03 02:10:13;;;;;;;0.88;0.80;;;20.50;68.40;;;;;;5050766;28;20186;-64
2023/08/03 02:12:39;;;;;;;1.95;0.82;;;20.50;68.40;;;;;;5051586;28;20175;-64
2023/08/03 02:15:08;;;;;;;1.50;0.90;;;20.50;68.30;;;;;;5054346;28;20171;-66
2023/08/03 02:17:34;;;;;;;0.80;0.80;;;20.50;68.40;;;;;;5054913;28;20172;-65
2023/08/03 02:19:59;;;;;;;0.98;0.90;;;20.50;68.40;;;;;;5055326;28;20175;-64
2023/08/03 02:22:25;;;;;;;1.13;1.00;;;20.50;69.30;;;;;;5055246;28;20666;-65
2023/08/03 02:24:51;;;;;;;2.47;1.02;;;20.50;68.50;;;;;;5054335;28;20211;-65
2023/08/03 02:27:16;;;;;;;1.50;0.90;;;20.50;68.40;;;;;;5054815;28;20225;-65
2023/08/03 02:29:42;;;;;;;0.88;0.88;;;20.50;68.40;;;;;;5054993;28;20171;-64
2023/08/03 02:32:07;;;;;;;1.10;0.90;;;20.50;68.40;;;;;;5054030;28;20305;-65
2023/08/03 02:34:33;;;;;;;1.00;0.90;;;20.50;68.40;;;;;;5055100;28;20183;-65
2023/08/03 02:36:58;;;;;;;0.98;0.90;;;20.50;68.40;;;;;;5054737;28;20643;-65
2023/08/03 02:39:24;;;;;;;1.65;1.05;;;20.50;68.40;;;;;;5054121;28;20540;-65
2023/08/03 02:41:50;;;;;;;1.48;1.00;;;20.50;68.40;;;;;;5054895;28;20230;-65
2023/08/03 02:44:15;;;;;;;0.98;0.57;;;20.50;68.40;;;;;;5054634;28;20578;-66
2023/08/03 02:46:41;;;;;;;1.00;0.90;;;20.50;68.40;;;;;;5054270;28;20171;-65
2023/08/03 02:49:06;;;;;;;1.63;1.10;;;20.50;68.40;;;;;;5054316;28;20171;-65
2023/08/03 02:51:32;;;;;;;1.00;0.90;;;20.50;68.40;;;;;;5054682;28;20168;-64
2023/08/03 02:53:57;;;;;;;1.38;1.10;;;20.50;69.30;;;;;;5053692;28;20619;-64
2023/08/03 02:56:23;;;;;;;1.17;0.93;;;20.50;68.40;;;;;;5054606;28;20179;-65
2023/08/03 02:58:48;;;;;;;1.30;1.17;;;20.50;68.50;;;;;;5053820;28;20695;-66
2023/08/03 03:01:14;;;;;;;1.52;0.85;;;20.40;68.40;;;;;;5054482;28;20250;-66
2023/08/03 03:03:40;;;;;;;1.23;0.95;;;20.50;68.50;;;;;;5054276;28;20178;-66
2023/08/03 03:06:05;;;;;;;1.70;0.80;;;20.50;68.50;;;;;;5053736;28;20211;-68
2023/08/03 03:08:31;;;;;;;1.60;1.00;;;20.40;68.40;;;;;;5054499;28;20199;-67
2023/08/03 03:10:57;;;;;;;0.90;0.80;;;20.50;68.50;;;;;;5054123;28;20203;-65
2023/08/03 03:13:23;;;;;;;1.65;1.00;;;20.50;68.60;;;;;;5053880;28;20692;-65
2023/08/03 03:15:49;;;;;;;1.08;0.98;;;20.40;68.50;;;;;;5054156;28;20546;-65
2023/08/03 03:18:14;;;;;;;1.35;0.90;;;20.40;68.50;;;;;;5053890;28;20179;-64
2023/08/03 03:20:40;;;;;;;2.03;1.08;;;20.50;68.60;;;;;;5053508;28;20183;-64
2023/08/03 03:23:05;;;;;;;1.48;0.90;;;20.50;68.60;;;;;;5053877;28;20269;-64
2023/08/03 03:25:31;;;;;;;0.70;0.70;;;20.50;68.60;;;;;;5053313;28;20644;-65
2023/08/03 03:28:03;;;;;;;1.05;0.70;;;20.50;68.60;;;;;;5053241;28;20179;-64
2023/08/03 03:30:29;;;;;;;1.33;0.93;;;20.40;68.60;;;;;;5054216;28;20255;-64
2023/08/03 03:32:55;;;;;;;1.20;1.10;;;20.40;68.50;;;;;;5054094;28;20254;-65
2023/08/03 03:35:21;;;;;;;1.27;1.00;;;20.40;68.60;;;;;;5053185;28;20690;-65
2023/08/03 03:37:46;;;;;;;1.15;0.90;;;20.40;68.60;;;;;;5053799;28;20493;-66
2023/08/03 03:40:12;;;;;;;0.95;0.90;;;20.40;68.60;;;;;;5053327;28;20170;-65
2023/08/03 03:42:37;;;;;;;1.65;1.20;;;20.40;68.70;;;;;;5052931;28;20249;-65
2023/08/03 03:45:03;;;;;;;0.98;0.80;;;20.40;68.70;;;;;;5053474;28;20214;-65
2023/08/03 03:47:29;;;;;;;1.83;0.90;;;20.40;68.70;;;;;;5053772;28;20528;-64
2023/08/03 03:49:54;;;;;;;1.20;1.10;;;20.40;68.70;;;;;;5052843;28;20179;-64
2023/08/03 03:52:20;;;;;;;1.63;1.00;;;20.40;68.70;;;;;;5053321;28;20179;-64
2023/08/03 03:54:45;;;;;;;1.45;0.80;;;20.40;68.70;;;;;;5053565;28;20179;-64
2023/08/03 03:57:11;;;;;;;1.20;0.93;;;20.40;68.70;;;;;;5052621;28;20175;-64
2023/08/03 03:59:36;;;;;;;1.27;0.80;;;20.40;68.70;;;;;;5053566;28;20614;-65
2023/08/03 04:02:20;;;;;;;1.00;0.80;;;20.40;68.70;;;;;;5052499;28;20634;-66
2023/08/03 04:04:46;;;;;;;0.80;0.80;;;20.40;68.70;;;;;;5053388;28;20217;-66
2023/08/03 04:07:12;;;;;;;1.08;0.80;;;20.40;68.70;;;;;;5052895;28;20175;-66
2023/08/03 04:09:37;;;;;;;1.00;0.90;;;20.40;68.70;;;;;;5052867;28;20175;-66
2023/08/03 04:12:03;;;;;;;1.83;0.77;;;20.50;68.80;;;;;;5053152;28;20207;-65
2023/08/03 04:14:28;;;;;;;0.82;0.70;;;20.40;68.70;;;;;;5053383;28;20209;-65
2023/08/03 04:16:54;;;;;;;1.92;0.90;;;20.40;68.70;;;;;;5052440;28;20175;-65
2023/08/03 04:19:20;;;;;;;0.80;0.80;;;20.40;68.70;;;;;;5052848;28;20183;-65
2023/08/03 04:21:45;;;;;;;1.40;0.98;;;20.40;68.70;;;;;;5052972;28;20535;-65
2023/08/03 04:24:11;;;;;;;0.80;0.77;;;20.40;68.80;;;;;;5051980;28;20285;-65
2023/08/03 04:26:36;;;;;;;0.73;0.73;;;20.40;68.70;;;;;;5052879;28;20210;-66
2023/08/03 04:29:02;;;;;;;1.05;0.75;;;20.40;68.70;;;;;;5052518;28;20175;-66
2023/08/03 04:31:27;;;;;;;0.82;0.75;;;20.40;68.70;;;;;;5051987;28;20184;-66
2023/08/03 04:33:53;;;;;;;0.70;0.70;;;20.40;68.80;;;;;;5052813;28;20186;-66
2023/08/03 04:36:18;;;;;;;0.50;0.50;;;20.40;68.70;;;;;;5052366;28;20194;-67
2023/08/03 04:38:44;;;;;;;1.42;0.80;;;20.30;69.50;;;;;;5051081;28;20163;-67
2023/08/03 04:41:10;;;;;;;0.98;0.90;;;20.40;68.80;;;;;;5052409;28;20213;-66
2023/08/03 04:43:35;;;;;;;1.38;0.90;;;20.40;68.80;;;;;;5052762;28;20657;-66
2023/08/03 04:46:01;;;;;;;1.00;0.90;;;20.40;68.80;;;;;;5051645;28;20177;-65
2023/08/03 04:48:26;;;;;;;1.75;0.70;;;20.30;68.70;;;;;;5052688;28;20244;-64
2023/08/03 04:50:52;;;;;;;1.45;0.90;;;20.40;69.70;;;;;;5052364;28;20171;-65
2023/08/03 04:53:17;;;;;;;0.80;0.80;;;20.40;68.80;;;;;;5051621;28;20179;-65
2023/08/03 04:55:44;;;;;;;1.00;0.80;;;20.40;68.80;;;;;;5052452;28;20175;-65
2023/08/03 04:58:10;;;;;;;1.00;0.80;;;20.40;68.90;;;;;;5052028;28;20633;-65
2023/08/03 05:00:35;;;;;;;0.90;0.90;;;20.40;68.80;;;;;;5051884;28;20182;-66
2023/08/03 05:03:01;;;;;;;1.70;0.77;;;20.40;68.80;;;;;;5052130;28;20547;-66
2023/08/03 05:05:27;;;;;;;1.23;0.70;;;20.30;68.80;;;;;;5051566;28;20661;-66
2023/08/03 05:07:55;;;;;;;1.08;0.70;;;20.40;68.80;;;;;;5052153;28;20539;-66
2023/08/03 05:10:20;;;;;;;1.85;0.90;;;20.40;68.90;;;;;;5051948;28;20182;-65
2023/08/03 05:12:46;;;;;;;0.77;0.70;;;20.40;68.90;;;;;;5051725;28;20176;-65
2023/08/03 05:15:11;;;;;;;1.00;0.80;;;20.30;68.80;;;;;;5051981;28;20224;-65
2023/08/03 05:17:37;;;;;;;1.23;0.80;;;20.30;68.80;;;;;;5052251;28;20258;-65
2023/08/03 05:20:02;;;;;;;0.77;0.70;;;20.40;68.80;;;;;;5051312;28;20543;-64
2023/08/03 05:22:28;;;;;;;1.67;0.95;;;20.40;68.90;;;;;;5051956;28;20769;-64
2023/08/03 05:24:54;;;;;;;1.38;0.98;;;20.30;68.80;;;;;;5052141;28;20215;-64
2023/08/03 05:27:19;;;;;;;1.27;1.10;;;20.30;68.80;;;;;;5051025;28;20633;-64
2023/08/03 05:29:45;;;;;;;1.13;1.00;;;20.40;68.90;;;;;;5052150;28;20207;-64
2023/08/03 05:32:10;;;;;;;0.70;0.70;;;20.30;69.60;;;;;;5051888;28;20191;-65
2023/08/03 05:34:36;;;;;;;1.08;0.80;;;20.40;69.70;;;;;;5051175;28;20532;-66
2023/08/03 05:37:02;;;;;;;1.35;0.90;;;20.40;68.90;;;;;;5051843;28;20179;-65
2023/08/03 05:39:27;;;;;;;1.88;1.17;;;20.30;68.80;;;;;;5052116;28;20187;-65
2023/08/03 05:41:53;;;;;;;1.38;0.70;;;20.40;68.80;;;;;;5051085;28;20627;-65
2023/08/03 05:44:19;;;;;;;1.00;0.80;;;20.30;68.80;;;;;;5051545;28;20558;-64
2023/08/03 05:46:44;;;;;;;2.08;0.80;;;20.40;68.80;;;;;;5051714;28;20195;-64
2023/08/03 05:49:10;;;;;;;0.63;0.60;;;20.40;68.80;;;;;;5052019;28;20179;-64
2023/08/03 05:51:35;;;;;;;1.30;0.70;;;20.40;68.90;;;;;;5055972;28;20206;-63
2023/08/03 05:54:01;;;;;;;0.60;0.60;;;20.40;68.80;;;;;;5055679;28;20183;-64
2023/08/03 05:56:26;;;;;;;1.65;0.70;;;20.40;68.80;;;;;;5053898;28;20536;-64
2023/08/03 05:58:55;;;;;;;2.47;0.68;;;20.80;69.10;;;;;;5055717;28;20618;-65
2023/08/03 06:01:22;;;;;;;1.33;0.75;;;20.40;68.80;;;;;;5055487;28;20171;-65
2023/08/03 06:03:47;;;;;;;0.88;0.88;;;20.40;68.80;;;;;;5054843;28;20179;-66
2023/08/03 06:06:18;;;;;;;1.50;1.00;;;20.30;68.90;;;;;;5055321;28;20183;-65
2023/08/03 06:08:46;;;;;;;1.52;0.95;;;20.30;68.80;;;;;;5054794;28;20258;-66
2023/08/03 06:11:11;;;;;;;1.55;0.80;;;20.30;68.80;;;;;;5055375;28;20255;-64
2023/08/03 06:13:38;;;;;;;0.82;0.82;;;20.30;68.80;;;;;;5054000;28;20258;-65
2023/08/03 06:16:08;;;;;;;1.48;0.82;;;20.30;68.80;;;;;;5054222;28;20194;-64
2023/08/03 06:18:33;;;;;;;1.20;0.90;;;20.30;68.90;;;;;;5055542;28;20597;-64
2023/08/03 06:20:59;;;;;;;2.00;0.88;;;20.30;68.80;;;;;;5053632;28;20797;-64
2023/08/03 06:23:28;;;;;;;1.50;0.80;;;20.30;68.80;;;;;;5053363;28;20533;-66
2023/08/03 06:25:55;;;;;;;1.00;0.90;;;20.30;68.90;;;;;;5054970;28;20650;-66
2023/08/03 06:28:21;;;;;;;2.35;0.88;;;20.30;69.70;;;;;;5054922;28;20175;-66
2023/08/03 06:30:48;;;;;;;1.25;0.90;;;20.30;68.90;;;;;;5054299;28;20187;-66
2023/08/03 06:33:18;;;;;;;1.17;1.08;;;20.40;68.90;;;;;;5054664;28;20261;-66
2023/08/03 06:35:45;;;;;;;1.38;1.00;;;20.30;68.90;;;;;;5055002;28;20190;-67
2023/08/03 06:38:12;;;;;;;1.55;0.80;;;20.40;69.00;;;;;;5054451;28;20196;-66
2023/08/03 06:40:41;;;;;;;1.38;1.05;;;20.30;68.90;;;;;;5055330;28;20187;-67
2023/08/03 06:43:08;;;;;;;1.02;0.75;;;20.30;68.90;;;;;;5055216;28;20324;-66
2023/08/03 06:45:33;;;;;;;2.03;0.95;;;20.30;69.70;;;;;;5054009;28;20662;-65
2023/08/03 06:47:59;;;;;;;1.08;0.75;;;20.30;68.90;;;;;;5054551;28;20199;-66
2023/08/03 06:50:31;;;;;;;1.05;0.98;;;20.30;68.90;;;;;;5054676;28;20221;-65
2023/08/03 06:52:57;;;;;;;1.17;0.80;;;20.30;68.90;;;;;;5053563;28;20182;-65
2023/08/03 06:55:23;;;;;;;0.82;0.80;;;20.30;68.90;;;;;;5054701;28;20178;-64
2023/08/03 06:57:48;;;;;;;1.35;0.90;;;20.30;68.90;;;;;;5053869;28;20190;-64
2023/08/03 07:00:14;;;;;;;0.85;0.75;;;20.30;68.90;;;;;;5053323;28;20198;-66
2023/08/03 07:02:40;;;;;;;1.02;0.77;;;20.40;68.90;;;;;;5054541;28;20266;-66
2023/08/03 07:05:06;;;;;;;1.52;0.75;;;20.30;68.90;;;;;;5053455;28;20218;-66
2023/08/03 07:07:31;;;;;;;0.98;0.70;;;20.30;68.90;;;;;;5054485;28;20252;-66
2023/08/03 07:09:59;;;;;;;1.17;0.90;;;20.40;69.00;;;;;;5053977;28;20175;-65
2023/08/03 07:12:25;;;;;;;1.58;0.70;;;20.30;68.90;;;;;;5053349;28;20179;-64
2023/08/03 07:14:50;;;;;;;2.05;1.23;;;20.40;68.90;;;;;;5054468;28;20186;-65
2023/08/03 07:17:16;;;;;;;1.50;0.82;;;20.40;68.90;;;;;;5053981;28;20171;-65
2023/08/03 07:19:42;;;;;;;0.70;0.63;;;20.40;68.90;;;;;;5053326;28;20299;-65
2023/08/03 07:22:08;;;;;;;1.33;0.80;;;20.40;68.90;;;;;;5053897;28;20179;-67
2023/08/03 07:24:34;;;;;;;1.50;0.93;;;20.40;68.90;;;;;;5053944;28;20682;-66
2023/08/03 07:27:03;;;;;;;0.68;0.68;;;20.40;69.80;;;;;;5053014;28;20233;-65
2023/08/03 07:29:29;;;;;;;2.53;0.90;;;20.40;68.90;;;;;;5053931;28;20640;-66
2023/08/03 07:31:55;;;;;;;2.05;0.95;;;20.30;68.90;;;;;;5054112;28;20202;-66
2023/08/03 07:34:20;;;;;;;2.63;0.93;;;20.40;69.00;;;;;;5053347;28;20228;-66
2023/08/03 07:36:46;;;;;;;0.95;0.80;;;20.30;68.90;;;;;;5053742;28;20171;-66
2023/08/03 07:39:12;;;;;;;0.80;0.70;;;20.40;69.00;;;;;;5053579;28;20183;-65
2023/08/03 07:41:38;;;;;;;2.58;1.02;;;20.40;68.90;;;;;;5052837;28;20230;-66
2023/08/03 07:44:04;;;;;;;1.02;0.70;;;20.30;69.00;;;;;;5053309;28;20203;-65
2023/08/03 07:46:30;;;;;;;3.38;1.00;;;20.40;69.00;;;;;;5053589;28;20190;-65
2023/08/03 07:48:56;;;;;;;3.13;1.15;;;20.40;69.00;;;;;;5053027;28;20178;-65
2023/08/03 07:51:22;;;;;;;2.75;0.88;;;20.40;69.10;;;;;;5054544;28;20189;-64
2023/08/03 07:53:47;;;;;;;2.40;0.80;;;20.40;69.00;;;;;;5060626;28;20250;-65
2023/08/03 07:56:16;;;;;;;2.53;1.10;;;20.40;69.10;;;;;;5067496;28;20219;-65
2023/08/03 07:58:42;;;;;;;1.95;0.90;;;20.40;69.90;;;;;;5072889;28;20171;-66
2023/08/03 08:01:08;;;;;;;2.30;1.00;;;20.40;69.10;;;;;;5051772;28;20238;-66
2023/08/03 08:03:37;;;;;;;2.50;1.10;;;20.40;69.10;;;;;;5053450;28;20742;-67
2023/08/03 08:06:06;;;;;;;1.05;0.85;;;20.40;69.10;;;;;;5052918;28;20222;-66
2023/08/03 08:08:32;;;;;;;3.17;0.95;;;20.40;69.10;;;;;;5063654;28;20174;-66
2023/08/03 08:10:57;;;;;;;1.67;1.05;;;20.40;69.10;;;;;;5072815;28;20177;-66
2023/08/03 08:13:23;;;;;;;0.90;0.90;;;20.40;69.10;;;;;;5073141;28;20174;-66
2023/08/03 08:15:49;;;;;;;1.70;1.00;;;20.40;69.10;;;;;;5072049;28;20170;-65
2023/08/03 08:18:14;;;;;;;2.78;0.73;;;20.50;69.30;;;;;;5072784;28;20232;-65
2023/08/03 08:20:40;;;;;;;2.08;1.15;;;20.40;69.20;;;;;;5073115;28;20178;-65
2023/08/03 08:23:05;;;;;;;1.45;0.88;;;20.40;69.30;;;;;;5071959;28;20170;-65
2023/08/03 08:25:33;;;;;;;1.38;0.95;;;20.40;69.30;;;;;;5062008;28;20206;-66
2023/08/03 08:27:59;;;;;;;2.15;0.90;;;20.40;69.30;;;;;;5052354;28;20642;-66
2023/08/03 08:30:24;;;;;;;2.97;1.55;;;20.40;69.30;;;;;;5052223;28;20183;-65
2023/08/03 08:32:50;;;;;;;2.33;0.80;;;20.40;69.30;;;;;;5052889;28;20172;-66
2023/08/03 08:35:15;;;;;;;2.13;1.00;;;20.40;69.30;;;;;;5052388;28;20229;-66
2023/08/03 08:37:41;;;;;;;1.55;1.08;;;20.40;69.30;;;;;;5052064;28;20163;-67
2023/08/03 08:40:11;;;;;;;1.60;0.93;;;20.40;69.30;;;;;;5052252;28;20320;-67
2023/08/03 08:42:37;;;;;;;1.02;0.70;;;20.40;69.30;;;;;;5052518;28;20218;-66
2023/08/03 08:45:04;;;;;;;3.33;1.10;;;20.40;69.30;;;;;;5051433;28;20214;-66
2023/08/03 08:47:30;;;;;;;1.38;0.90;;;20.40;69.20;;;;;;5051199;28;20273;-63
2023/08/03 08:49:55;;;;;;;4.07;0.93;;;20.40;69.60;;;;;;5052017;28;20223;-63
2023/08/03 08:52:21;;;;;;;3.35;0.90;;;20.40;69.60;;;;;;5051968;28;20194;-62
2023/08/03 08:54:46;;;;;;;2.60;1.08;;;20.50;69.40;;;;;;5051227;28;20174;-62
2023/08/03 08:57:12;;;;;;;2.13;0.88;;;20.50;69.30;;;;;;5052228;28;20190;-64
2023/08/03 08:59:59;;;;;;;3.67;0.88;;;20.50;69.30;;;;;;5062347;28;20178;-63
2023/08/03 09:02:25;;;;;;;3.08;0.98;;;20.50;69.30;;;;;;5071396;28;20536;-63
2023/08/03 09:04:51;;;;;;;1.75;1.05;;;20.50;69.50;;;;;;5071592;28;20689;-63
2023/08/03 09:07:19;;;;;;;1.75;0.88;;;20.60;69.50;;;;;;5072228;28;20174;-63
2023/08/03 09:09:45;;;;;;;3.35;1.10;;;20.60;69.20;;;;;;5072196;28;20667;-63
2023/08/03 09:12:26;;;;;;;2.67;0.90;;;20.70;69.20;;;;;;5069936;28;20257;-63
2023/08/03 09:14:51;;;;;;;1.70;0.80;;;20.80;69.00;;;;;;5072214;28;20643;-63
2023/08/03 09:17:27;;;;;;;1.75;0.80;;;20.90;68.60;;;;;;5072026;28;20166;-63
2023/08/03 09:19:52;;;;;;;1.90;0.80;;;21.00;68.60;;;;;;5071772;28;20264;-63
2023/08/03 09:22:19;;;;;;;2.78;1.17;;;21.00;68.60;;;;;;5071572;28;20265;-63
2023/08/03 09:24:47;;;;;;;1.90;0.90;;;21.00;68.70;;;;;;5074394;28;20245;-63
2023/08/03 09:27:16;;;;;;;4.60;1.33;;;20.90;68.80;;;;;;5075138;28;20215;-64
2023/08/03 09:29:42;;;;;;;2.85;0.95;;;20.90;68.90;;;;;;5074405;28;20273;-63
2023/08/03 09:32:08;;;;;;;1.13;0.77;;;21.00;68.90;;;;;;5075686;28;20254;-64
2023/08/03 09:34:42;;;;;;;2.05;0.93;;;21.00;68.50;;;;;;5075161;28;20629;-63
2023/08/03 09:37:08;;;;;;;1.75;0.95;;;21.10;68.50;;;;;;5075385;28;20227;-63
2023/08/03 09:39:34;;;;;;;3.70;1.13;;;21.10;68.40;;;;;;5075449;28;20178;-64
2023/08/03 09:42:04;;;;;;;2.45;0.98;;;21.20;68.40;;;;;;5075629;28;20229;-65
2023/08/03 09:44:31;;;;;;;1.55;0.90;;;21.20;68.20;;;;;;5075694;28;20307;-65
2023/08/03 09:46:57;;;;;;;1.55;1.00;;;21.20;68.20;;;;;;5075163;28;20182;-65
2023/08/03 09:49:23;;;;;;;3.20;1.00;;;21.30;68.10;;;;;;5075826;28;20664;-65
2023/08/03 09:51:52;;;;;;;2.67;0.70;;;21.20;68.30;;;;;;5075972;28;20178;-63
2023/08/03 09:54:24;;;;;;;1.83;1.00;;;21.30;68.20;;;;;;5074847;28;20182;-66
2023/08/03 09:56:53;;;;;;;1.80;1.00;;;21.30;68.10;;;;;;5075781;28;20189;-65
2023/08/03 09:59:23;;;;;;;3.05;1.20;;;21.40;68.20;;;;;;5067544;28;20183;-66
2023/08/03 10:01:49;;;;;;;2.40;1.00;;;21.40;68.10;;;;;;5055066;28;20186;-66
2023/08/03 10:04:14;;;;;;;1.55;0.85;;;21.50;67.90;;;;;;5037465;28;20561;-66
2023/08/03 10:06:41;;;;;;;2.65;0.90;;;21.40;68.20;;;;;;5037766;28;20207;-66
2023/08/03 10:09:07;;;;;;;2.70;0.80;;;21.30;68.50;;;;;;5037114;28;20194;-65
2023/08/03 10:11:36;;;;;;;1.85;0.90;;;21.20;68.70;;;;;;5055300;28;20187;-65
2023/08/03 10:14:03;;;;;;;2.72;1.00;;;21.20;68.80;;;;;;5055159;28;20175;-65
2023/08/03 10:16:31;;;;;;;2.38;1.00;;;21.30;69.80;;;;;;5054733;28;20254;-66
2023/08/03 10:18:57;;;;;;;1.40;1.10;;;21.20;68.90;;;;;;5053683;28;20642;-65
2023/08/03 10:21:23;;;;;;;1.33;1.10;;;21.20;69.80;;;;;;5055209;28;20593;-66
2023/08/03 10:24:24;;;;;;;1.30;0.80;;;21.20;69.00;;;;;;5054733;28;20186;-66
2023/08/03 10:26:54;;;;;;;2.72;1.10;;;21.20;70.10;;;;;;5033162;28;20179;-65
2023/08/03 10:29:54;;;;;;;2.97;1.20;;;21.20;69.40;;;;;;5050387;28;20653;-66
2023/08/03 10:32:22;;;;;;;2.25;1.15;;;21.20;69.30;;;;;;5054719;28;20190;-67
2023/08/03 10:34:48;;;;;;;1.50;0.90;;;21.30;68.90;;;;;;5054957;28;20631;-67
2023/08/03 10:37:13;;;;;;;2.20;1.00;;;21.40;68.60;;;;;;5054274;28;20761;-67
2023/08/03 10:39:47;;;;;;;1.98;1.13;;;21.50;68.50;;;;;;5054938;28;20182;-67
2023/08/03 10:42:30;;;;;;;1.20;0.80;;;21.60;69.20;;;;;;5054460;28;20238;-66
2023/08/03 10:45:21;;;;;;;1.95;1.13;;;21.50;68.40;;;;;;5053688;28;20218;-66
2023/08/03 10:47:46;;;;;;;1.60;1.08;;;21.40;68.70;;;;;;5054833;28;20586;-67
2023/08/03 10:50:12;;;;;;;1.20;0.75;;;21.30;68.90;;;;;;5036248;28;20179;-66
2023/08/03 10:52:40;;;;;;;2.88;1.00;;;21.30;69.20;;;;;;5054770;28;20171;-66
2023/08/03 10:55:26;;;;;;;1.10;0.75;;;21.20;69.40;;;;;;5054474;28;20179;-66
2023/08/03 10:57:52;;;;;;;1.80;1.17;;;21.20;69.30;;;;;;5053446;28;20301;-66
2023/08/03 11:00:18;;;;;;;3.10;1.30;;;21.30;69.30;;;;;;5070348;28;20558;-67
2023/08/03 11:02:44;;;;;;;3.35;1.05;;;21.30;69.00;;;;;;5074522;28;20703;-67
2023/08/03 11:05:12;;;;;;;1.95;1.02;;;21.20;69.10;;;;;;5073413;28;20206;-66
2023/08/03 11:07:39;;;;;;;2.72;1.00;;;21.30;69.30;;;;;;5074566;28;20249;-66
2023/08/03 11:10:06;;;;;;;1.50;0.95;;;21.30;69.40;;;;;;5074030;28;20178;-66
2023/08/03 11:12:32;;;;;;;1.25;1.10;;;21.30;69.50;;;;;;5073764;28;20180;-65
2023/08/03 11:14:59;;;;;;;1.60;1.08;;;21.30;69.50;;;;;;5072944;28;20257;-65
2023/08/03 11:17:28;;;;;;;1.58;0.90;;;21.30;69.60;;;;;;5074330;28;20184;-65
2023/08/03 11:19:55;;;;;;;1.27;0.82;;;21.40;69.40;;;;;;5073369;28;20170;-65
2023/08/03 11:22:21;;;;;;;0.80;0.80;;;21.50;69.00;;;;;;5073768;28;20264;-65
2023/08/03 11:24:48;;;;;;;2.30;1.15;;;21.60;68.70;;;;;;5074127;28;20671;-65
2023/08/03 11:27:14;;;;;;;2.70;1.08;;;21.60;68.50;;;;;;5073076;28;20178;-65
2023/08/03 11:29:39;;;;;;;3.55;1.23;;;21.50;68.60;;;;;;5074397;28;20257;-65
2023/08/03 11:32:05;;;;;;;2.42;1.30;;;21.50;69.00;;;;;;5072983;28;20261;-66
2023/08/03 11:34:32;;;;;;;2.33;1.10;;;21.40;69.20;;;;;;5073794;28;20182;-66
2023/08/03 11:36:57;;;;;;;2.17;1.10;;;21.40;69.30;;;;;;5073411;28;20232;-66
2023/08/03 11:39:23;;;;;;;2.97;1.10;;;21.30;69.40;;;;;;5073054;28;20498;-67
2023/08/03 11:41:49;;;;;;;2.03;1.13;;;21.30;69.60;;;;;;5072539;28;20700;-66
2023/08/03 11:44:14;;;;;;;2.78;1.08;;;21.30;69.60;;;;;;5071859;28;20226;-65
2023/08/03 11:46:40;;;;;;;2.10;1.13;;;21.30;69.60;;;;;;5072408;28;20204;-65
2023/08/03 11:49:07;;;;;;;3.42;1.17;;;21.30;69.80;;;;;;5073120;28;20665;-64
2023/08/03 11:51:36;;;;;;;1.63;1.30;;;21.30;69.60;;;;;;5072003;28;20175;-65
2023/08/03 11:54:20;;;;;;;1.73;1.10;;;21.40;69.40;;;;;;5072768;28;20536;-65
2023/08/03 11:56:46;;;;;;;2.42;1.50;;;21.50;68.90;;;;;;5072535;28;20186;-65
2023/08/03 11:59:11;;;;;;;3.08;1.33;;;21.50;68.90;;;;;;5073236;28;20228;-65
2023/08/03 12:01:47;;;;;;;2.65;1.08;;;21.50;68.70;;;;;;5072707;28;20174;-66
2023/08/03 12:04:13;;;;;;;1.23;0.80;;;21.50;68.90;;;;;;5072757;28;20543;-66
2023/08/03 12:06:43;;;;;;;3.08;1.10;;;21.50;68.90;;;;;;5073572;28;20174;-65
2023/08/03 12:09:09;;;;;;;2.53;1.60;;;21.50;68.90;;;;;;5072409;28;20175;-65
2023/08/03 12:11:34;;;;;;;2.53;1.20;;;21.40;69.00;;;;;;5073338;28;20176;-65
2023/08/03 12:14:00;;;;;;;2.38;1.10;;;21.40;69.10;;;;;;5073033;28;20179;-65
2023/08/03 12:16:25;;;;;;;2.78;1.15;;;21.40;69.10;;;;;;5072533;28;20525;-65
2023/08/03 12:18:51;;;;;;;1.20;0.98;;;21.40;69.30;;;;;;5072977;28;20220;-65
2023/08/03 12:21:16;;;;;;;1.30;1.13;;;21.30;70.10;;;;;;5072388;28;20193;-65
2023/08/03 12:23:42;;;;;;;2.25;1.00;;;21.30;69.50;;;;;;5072790;28;20257;-64
2023/08/03 12:26:08;;;;;;;2.50;1.50;;;21.30;69.50;;;;;;5072537;28;20543;-64
2023/08/03 12:28:33;;;;;;;2.13;1.20;;;21.30;69.50;;;;;;5072258;28;20174;-64
2023/08/03 12:30:59;;;;;;;1.80;1.20;;;21.40;69.40;;;;;;5072745;28;20690;-64
2023/08/03 12:33:24;;;;;;;1.13;1.02;;;21.40;69.30;;;;;;5072964;28;20171;-65
2023/08/03 12:35:50;;;;;;;2.90;1.30;;;21.50;69.00;;;;;;5072249;28;20189;-65
2023/08/03 12:38:15;;;;;;;2.10;1.20;;;21.50;68.80;;;;;;5072503;28;20175;-66
2023/08/03 12:40:41;;;;;;;2.42;1.00;;;21.50;68.90;;;;;;5072663;28;20171;-65
2023/08/03 12:43:06;;;;;;;2.15;1.48;;;21.40;69.10;;;;;;5071487;28;20229;-65
2023/08/03 12:45:32;;;;;;;1.92;1.00;;;21.50;69.00;;;;;;5072559;28;20221;-64